createdAt,value
2023-01-21T00:01:01.170Z,102064.66
2023-01-21T00:03:28.047Z,102065.28
2023-01-21T00:05:55.044Z,102063.16
2023-01-21T00:08:21.928Z,102078.97
2023-01-21T00:10:48.780Z,102071.88
2023-01-21T00:13:15.492Z,102075.47
2023-01-21T00:15:42.249Z,102092.06
2023-01-21T00:18:09.211Z,102083.59
2023-01-21T00:20:36.291Z,102092.94
2023-01-21T00:23:03.103Z,102095.81
2023-01-21T00:25:35.776Z,102102.56
2023-01-21T00:28:03.420Z,102106.13
2023-01-21T00:30:30.753Z,102099.13
2023-01-21T00:32:57.517Z,102105.78
2023-01-21T00:35:24.315Z,102112.56
2023-01-21T00:37:51.826Z,102116.63
2023-01-21T00:40:19.131Z,102113.28
2023-01-21T00:42:46.177Z,102119.47
2023-01-21T00:45:12.932Z,102119.22
2023-01-21T00:47:40.270Z,102124.91
2023-01-21T00:50:07.738Z,102118.31
2023-01-21T00:52:34.480Z,102124.09
2023-01-21T00:55:01.281Z,102134.84
2023-01-21T00:57:28.101Z,102127.94
2023-01-21T00:59:54.992Z,102128.75
2023-01-21T01:02:21.790Z,102141.34
2023-01-21T01:04:48.635Z,102135.38
2023-01-21T01:07:15.484Z,102155.59
2023-01-21T01:09:42.295Z,102160.81
2023-01-21T01:12:09.070Z,102160.63
2023-01-21T01:14:36.241Z,102164.31
2023-01-21T01:17:03.083Z,102168.41
2023-01-21T01:19:30.549Z,102171.34
2023-01-21T01:21:57.515Z,102174.41
2023-01-21T01:24:24.368Z,102185.50
2023-01-21T01:26:51.066Z,102188.94
2023-01-21T01:29:18.692Z,102195.94
2023-01-21T01:31:45.738Z,102195.91
2023-01-21T01:34:12.706Z,102199.88
2023-01-21T01:36:39.520Z,102200.72
2023-01-21T01:39:06.409Z,102208.19
2023-01-21T01:41:35.341Z,102204.78
2023-01-21T01:44:24.393Z,102217.56
2023-01-21T01:46:51.357Z,102215.09
2023-01-21T01:49:21.324Z,102216.38
2023-01-21T01:51:55.316Z,102219.34
2023-01-21T01:54:34.706Z,102222.78
2023-01-21T01:57:03.050Z,102225.69
2023-01-21T01:59:30.719Z,102221.38
2023-01-21T02:01:59.390Z,102228.19
2023-01-21T02:04:30.161Z,102228.50
2023-01-21T02:06:57.804Z,102239.06
2023-01-21T02:09:30.090Z,102239.44
2023-01-21T02:11:58.660Z,102245.41
2023-01-21T02:14:25.717Z,102250.41
2023-01-21T02:17:02.555Z,102251.91
2023-01-21T02:19:29.234Z,102259.03
2023-01-21T02:22:23.112Z,102267.16
2023-01-21T02:24:55.891Z,102268.47
2023-01-21T02:27:42.811Z,102273.84
2023-01-21T02:30:41.355Z,102266.09
2023-01-21T02:33:09.906Z,102270.28
2023-01-21T02:35:45.747Z,102270.66
2023-01-21T02:38:22.341Z,102279.63
2023-01-21T02:41:01.718Z,102272.13
2023-01-21T02:43:44.417Z,102273.56
2023-01-21T02:46:46.162Z,102278.13
2023-01-21T02:49:24.633Z,102286.66
2023-01-21T02:51:51.442Z,102282.56
2023-01-21T02:54:40.338Z,102286.44
2023-01-21T02:57:09.067Z,102283.16
2023-01-21T02:59:36.951Z,102288.28
2023-01-21T03:02:15.820Z,102297.38
2023-01-21T03:05:19.301Z,102301.78
2023-01-21T03:08:01.913Z,102298.28
2023-01-21T03:10:49.648Z,102301.44
2023-01-21T03:13:51.391Z,102315.88
2023-01-21T03:16:40.350Z,102316.47
2023-01-21T03:19:09.777Z,102319.16
2023-01-21T03:21:36.966Z,102318.59
2023-01-21T03:24:04.304Z,102325.47
2023-01-21T03:26:33.804Z,102330.47
2023-01-21T03:29:05.157Z,102324.19
2023-01-21T03:31:33.880Z,102330.81
2023-01-21T03:34:04.269Z,102333.28
2023-01-21T03:36:37.419Z,102332.56
2023-01-21T03:39:10.452Z,102332.00
2023-01-21T03:41:39.022Z,102331.75
2023-01-21T03:44:06.278Z,102331.50
2023-01-21T03:46:45.489Z,102335.50
2023-01-21T03:49:41.920Z,102327.25
2023-01-21T03:52:10.131Z,102322.97
2023-01-21T03:54:36.984Z,102328.53
2023-01-21T03:57:03.805Z,102328.38
2023-01-21T03:59:30.526Z,102327.44
2023-01-21T04:01:57.316Z,102333.44
2023-01-21T04:04:24.118Z,102343.94
2023-01-21T04:06:51.076Z,102337.44
2023-01-21T04:09:17.837Z,102340.06
2023-01-21T04:11:44.975Z,102348.50
2023-01-21T04:14:12.155Z,102342.28
2023-01-21T04:16:39.435Z,102344.56
2023-01-21T04:19:06.416Z,102345.19
2023-01-21T04:21:33.160Z,102351.75
2023-01-21T04:23:59.913Z,102360.84
2023-01-21T04:26:27.597Z,102350.38
2023-01-21T04:28:54.570Z,102352.53
2023-01-21T04:31:21.618Z,102361.97
2023-01-21T04:33:48.570Z,102359.59
2023-01-21T04:36:15.457Z,102359.13
2023-01-21T04:38:42.301Z,102364.88
2023-01-21T04:41:09.135Z,102364.25
2023-01-21T04:43:36.064Z,102368.41
2023-01-21T04:46:02.966Z,102376.84
2023-01-21T04:48:29.795Z,102378.50
2023-01-21T04:50:56.634Z,102376.66
2023-01-21T04:53:23.458Z,102389.00
2023-01-21T04:55:53.834Z,102390.13
2023-01-21T04:58:21.235Z,102394.75
2023-01-21T05:00:48.150Z,102394.66
2023-01-21T05:03:15.473Z,102398.44
2023-01-21T05:05:42.326Z,102402.69
2023-01-21T05:08:09.284Z,102398.06
2023-01-21T05:10:36.240Z,102410.06
2023-01-21T05:13:03.400Z,102409.31
2023-01-21T05:15:30.322Z,102411.91
2023-01-21T05:17:57.232Z,102414.50
2023-01-21T05:20:23.964Z,102412.19
2023-01-21T05:22:50.918Z,102426.34
2023-01-21T05:25:17.836Z,102425.81
2023-01-21T05:27:44.564Z,102422.94
2023-01-21T05:30:11.705Z,102422.19
2023-01-21T05:32:38.785Z,102428.47
2023-01-21T05:35:05.986Z,102439.63
2023-01-21T05:37:32.695Z,102432.69
2023-01-21T05:39:59.512Z,102438.47
2023-01-21T05:42:26.301Z,102437.22
2023-01-21T05:44:53.408Z,102446.13
2023-01-21T05:47:20.263Z,102451.44
2023-01-21T05:49:47.572Z,102452.59
2023-01-21T05:52:14.902Z,102458.66
2023-01-21T05:54:49.247Z,102457.34
2023-01-21T05:57:23.051Z,102455.81
2023-01-21T05:59:49.780Z,102470.72
2023-01-21T06:02:16.883Z,102467.00
2023-01-21T06:04:43.755Z,102474.72
2023-01-21T06:07:10.722Z,102470.53
2023-01-21T06:09:37.484Z,102484.63
2023-01-21T06:12:04.837Z,102477.44
2023-01-21T06:14:31.561Z,102489.34
2023-01-21T06:16:58.568Z,102503.59
2023-01-21T06:19:25.327Z,102497.97
2023-01-21T06:21:52.659Z,102501.91
2023-01-21T06:24:19.468Z,102514.44
2023-01-21T06:26:47.076Z,102509.88
2023-01-21T06:29:14.024Z,102514.66
2023-01-21T06:31:41.453Z,102518.97
2023-01-21T06:34:09.354Z,102531.03
2023-01-21T06:36:36.518Z,102530.63
2023-01-21T06:39:03.191Z,102538.59
2023-01-21T06:41:30.286Z,102536.69
2023-01-21T06:43:57.015Z,102545.53
2023-01-21T06:46:23.855Z,102540.75
2023-01-21T06:48:52.231Z,102540.31
2023-01-21T06:51:19.665Z,102540.56
2023-01-21T06:53:46.500Z,102547.03
2023-01-21T06:56:13.355Z,102550.63
2023-01-21T06:58:40.159Z,102554.50
2023-01-21T07:01:06.890Z,102554.25
2023-01-21T07:03:33.687Z,102567.31
2023-01-21T07:06:00.534Z,102569.28
2023-01-21T07:08:27.363Z,102568.63
2023-01-21T07:10:54.906Z,102579.91
2023-01-21T07:13:21.616Z,102578.25
2023-01-21T07:15:48.383Z,102578.75
2023-01-21T07:18:15.108Z,102580.22
2023-01-21T07:20:44.349Z,102575.25
2023-01-21T07:23:11.040Z,102590.81
2023-01-21T07:25:38.303Z,102580.09
2023-01-21T07:28:05.204Z,102586.03
2023-01-21T07:30:31.984Z,102592.81
2023-01-21T07:32:58.668Z,102597.94
2023-01-21T07:35:25.491Z,102604.50
2023-01-21T07:37:52.380Z,102616.41
2023-01-21T07:40:19.423Z,102619.81
2023-01-21T07:42:54.174Z,102618.56
2023-01-21T07:45:22.257Z,102624.56
2023-01-21T07:47:49.460Z,102626.81
2023-01-21T07:50:16.916Z,102633.00
2023-01-21T07:52:43.781Z,102637.84
2023-01-21T07:55:12.569Z,102639.63
2023-01-21T07:57:39.554Z,102639.56
2023-01-21T08:00:07.590Z,102642.75
2023-01-21T08:02:46.099Z,102648.84
2023-01-21T08:05:12.969Z,102647.81
2023-01-21T08:07:39.742Z,102658.63
2023-01-21T08:10:06.711Z,102652.53
2023-01-21T08:12:33.489Z,102672.84
2023-01-21T08:15:00.278Z,102671.03
2023-01-21T08:17:27.230Z,102677.28
2023-01-21T08:19:54.000Z,102684.50
2023-01-21T08:22:20.748Z,102686.28
2023-01-21T08:24:47.732Z,102684.34
2023-01-21T08:27:14.739Z,102696.41
2023-01-21T08:29:41.559Z,102700.16
2023-01-21T08:32:08.223Z,102696.88
2023-01-21T08:34:35.046Z,102696.13
2023-01-21T08:37:01.894Z,102698.22
2023-01-21T08:39:28.620Z,102697.69
2023-01-21T08:41:55.359Z,102699.28
2023-01-21T08:44:22.082Z,102704.09
2023-01-21T08:46:49.075Z,102700.28
2023-01-21T08:49:15.885Z,102711.69
2023-01-21T08:51:43.168Z,102711.78
2023-01-21T08:54:09.898Z,102708.19
2023-01-21T08:56:36.663Z,102717.84
2023-01-21T08:59:03.465Z,102715.00
2023-01-21T09:01:30.218Z,102724.31
2023-01-21T09:03:58.249Z,102730.16
2023-01-21T09:06:27.946Z,102730.88
2023-01-21T09:08:58.425Z,102737.47
2023-01-21T09:11:25.976Z,102733.69
2023-01-21T09:13:52.990Z,102745.75
2023-01-21T09:16:21.857Z,102748.41
2023-01-21T09:18:49.172Z,102749.00
2023-01-21T09:21:16.672Z,102744.16
2023-01-21T09:23:44.435Z,102751.91
2023-01-21T09:26:22.389Z,102754.53
2023-01-21T09:29:01.215Z,102751.25
2023-01-21T09:31:29.743Z,102748.09
2023-01-21T09:34:02.475Z,102755.41
2023-01-21T09:36:31.830Z,102755.16
2023-01-21T09:38:59.158Z,102753.84
2023-01-21T09:41:47.507Z,102762.34
2023-01-21T09:44:34.355Z,102759.13
2023-01-21T09:47:25.958Z,102760.03
2023-01-21T09:50:03.773Z,102761.81
2023-01-21T09:52:52.392Z,102765.50
2023-01-21T09:55:35.611Z,102761.78
2023-01-21T09:58:26.909Z,102769.19
2023-01-21T10:01:06.114Z,102777.31
2023-01-21T10:03:46.143Z,102778.09
2023-01-21T10:06:16.073Z,102780.31
2023-01-21T10:08:46.222Z,102782.63
2023-01-21T10:11:21.176Z,102787.94
2023-01-21T10:14:23.643Z,102780.78
2023-01-21T10:17:14.971Z,102790.34
2023-01-21T10:19:51.034Z,102792.47
2023-01-21T10:22:21.995Z,102783.38
2023-01-21T10:24:52.417Z,102782.63
2023-01-21T10:27:20.958Z,102791.00
2023-01-21T10:29:55.940Z,102792.63
2023-01-21T10:32:25.801Z,102790.09
2023-01-21T10:34:55.577Z,102793.03
2023-01-21T10:37:37.539Z,102796.72
2023-01-21T10:40:43.973Z,102796.03
2023-01-21T10:43:36.303Z,102796.19
2023-01-21T10:46:30.556Z,102795.06
2023-01-21T10:49:11.423Z,102786.88
2023-01-21T10:51:44.081Z,102805.25
2023-01-21T10:54:32.750Z,102800.09
2023-01-21T10:57:37.093Z,102795.31
2023-01-21T11:00:05.367Z,102804.38
2023-01-21T11:02:34.090Z,102798.78
2023-01-21T11:05:04.075Z,102805.97
2023-01-21T11:07:39.379Z,102814.47
2023-01-21T11:10:09.836Z,102812.81
2023-01-21T11:12:36.638Z,102813.34
2023-01-21T11:15:13.881Z,102821.63
2023-01-21T11:17:42.445Z,102821.00
2023-01-21T11:20:39.610Z,102825.09
2023-01-21T11:23:07.668Z,102830.03
2023-01-21T11:25:41.771Z,102826.38
2023-01-21T11:28:26.504Z,102832.28
2023-01-21T11:31:07.431Z,102833.09
2023-01-21T11:33:34.764Z,102828.97
2023-01-21T11:36:13.882Z,102835.94
2023-01-21T11:38:40.952Z,102832.56
2023-01-21T11:41:21.217Z,102838.41
2023-01-21T11:43:51.311Z,102843.00
2023-01-21T11:46:30.657Z,102846.22
2023-01-21T11:49:19.237Z,102850.22
2023-01-21T11:51:47.410Z,102854.34
2023-01-21T11:54:22.005Z,102849.44
2023-01-21T11:57:00.468Z,102853.28
2023-01-21T11:59:34.284Z,102854.59
2023-01-21T12:02:10.388Z,102854.22
2023-01-21T12:04:37.607Z,102854.25
2023-01-21T12:07:05.490Z,102852.81
2023-01-21T12:09:32.246Z,102854.94
2023-01-21T12:12:11.446Z,102852.03
2023-01-21T12:14:59.271Z,102850.72
2023-01-21T12:17:52.426Z,102849.50
2023-01-21T12:20:33.652Z,102843.41
2023-01-21T12:23:26.212Z,102856.84
2023-01-21T12:26:02.873Z,102855.81
2023-01-21T12:31:51.169Z,102853.59
2023-01-21T12:34:28.296Z,102857.06
2023-01-21T12:37:00.121Z,102855.56
2023-01-21T12:39:33.452Z,102856.22
2023-01-21T12:42:14.655Z,102860.81
2023-01-21T12:44:53.369Z,102861.28
2023-01-21T12:47:53.987Z,102867.81
2023-01-21T12:50:39.714Z,102860.09
2023-01-21T12:53:09.714Z,102867.03
2023-01-21T12:55:58.422Z,102864.34
2023-01-21T12:58:35.319Z,102862.72
2023-01-21T13:01:09.650Z,102864.00
2023-01-21T13:04:05.131Z,102857.47
2023-01-21T13:06:53.118Z,102859.56
2023-01-21T13:09:32.748Z,102864.63
2023-01-21T13:12:11.918Z,102863.53
2023-01-21T13:14:48.364Z,102865.78
2023-01-21T13:17:19.825Z,102873.25
2023-01-21T13:19:46.878Z,102871.50
2023-01-21T13:22:39.879Z,102867.88
2023-01-21T13:25:22.069Z,102878.09
2023-01-21T13:28:12.538Z,102864.06
2023-01-21T13:30:47.764Z,102869.44
2023-01-21T13:33:52.215Z,102865.25
2023-01-21T13:36:56.723Z,102863.38
2023-01-21T13:39:44.787Z,102861.00
2023-01-21T13:42:50.221Z,102860.91
2023-01-21T13:45:46.070Z,102848.22
2023-01-21T13:48:24.698Z,102849.50
2023-01-21T13:51:05.644Z,102849.31
2023-01-21T13:53:58.774Z,102853.25
2023-01-21T13:56:45.096Z,102852.38
2023-01-21T13:59:18.074Z,102857.25
2023-01-21T14:01:55.124Z,102848.25
2023-01-21T14:04:38.412Z,102847.34
2023-01-21T14:07:22.423Z,102846.97
2023-01-21T14:10:00.610Z,102842.88
2023-01-21T14:12:41.903Z,102844.66
2023-01-21T14:15:19.657Z,102847.66
2023-01-21T14:18:18.715Z,102860.47
2023-01-21T14:21:08.250Z,102850.63
2023-01-21T14:23:39.343Z,102860.47
2023-01-21T14:26:25.415Z,102858.22
2023-01-21T14:29:06.678Z,102860.47
2023-01-21T14:32:03.496Z,102864.81
2023-01-21T14:34:35.199Z,102853.75
2023-01-21T14:37:17.440Z,102863.59
2023-01-21T14:39:58.366Z,102869.94
2023-01-21T14:42:46.471Z,102868.81
2023-01-21T14:45:15.978Z,102869.66
2023-01-21T14:47:48.272Z,102859.53
2023-01-21T14:50:43.047Z,102866.41
2023-01-21T14:53:18.748Z,102872.09
2023-01-21T14:55:45.728Z,102872.16
2023-01-21T14:58:24.599Z,102872.44
2023-01-21T15:00:51.672Z,102869.03
2023-01-21T15:03:29.241Z,102877.22
2023-01-21T15:06:00.499Z,102870.69
2023-01-21T15:08:30.524Z,102882.16
2023-01-21T15:11:08.209Z,102885.91
2023-01-21T15:13:35.149Z,102889.38
2023-01-21T15:16:26.615Z,102889.81
2023-01-21T15:19:08.911Z,102892.22
2023-01-21T15:21:42.294Z,102885.56
2023-01-21T15:24:35.359Z,102886.13
2023-01-21T15:27:18.481Z,102891.31
2023-01-21T15:29:54.637Z,102894.59
2023-01-21T15:32:38.851Z,102887.88
2023-01-21T15:35:20.590Z,102889.72
2023-01-21T15:37:52.184Z,102900.41
2023-01-21T15:40:28.274Z,102891.00
2023-01-21T15:43:05.815Z,102903.72
2023-01-21T15:46:09.882Z,102903.09
2023-01-21T15:49:02.136Z,102903.25
2023-01-21T15:51:44.544Z,102889.09
2023-01-21T15:54:17.360Z,102900.28
2023-01-21T15:57:02.519Z,102904.31
2023-01-21T15:59:56.886Z,102894.63
2023-01-21T16:02:26.410Z,102900.38
2023-01-21T16:05:31.156Z,102901.72
2023-01-21T16:08:14.452Z,102898.22
2023-01-21T16:11:13.852Z,102889.19
2023-01-21T16:14:20.550Z,102888.09
2023-01-21T16:17:07.059Z,102887.50
2023-01-21T16:19:38.428Z,102892.97
2023-01-21T16:22:07.843Z,102884.09
2023-01-21T16:24:39.380Z,102892.16
2023-01-21T16:27:26.928Z,102886.50
2023-01-21T16:30:14.607Z,102878.19
2023-01-21T16:32:42.235Z,102881.59
2023-01-21T16:35:09.374Z,102888.44
2023-01-21T16:37:36.828Z,102890.13
2023-01-21T16:40:09.715Z,102901.44
2023-01-21T16:42:40.969Z,102900.19
2023-01-21T16:45:19.368Z,102894.00
2023-01-21T16:47:53.563Z,102895.03
2023-01-21T16:50:26.593Z,102894.31
2023-01-21T16:52:55.016Z,102890.72
2023-01-21T16:55:30.184Z,102875.94
2023-01-21T16:57:59.118Z,102894.00
2023-01-21T17:00:31.480Z,102891.97
2023-01-21T17:02:59.584Z,102895.88
2023-01-21T17:05:29.226Z,102891.94
2023-01-21T17:08:02.361Z,102904.06
2023-01-21T17:10:53.114Z,102907.91
2023-01-21T17:13:20.264Z,102903.69
2023-01-21T17:15:58.595Z,102907.09
2023-01-21T17:18:39.516Z,102908.03
2023-01-21T17:21:13.858Z,102918.84
2023-01-21T17:23:51.630Z,102924.84
2023-01-21T17:26:38.163Z,102917.97
2023-01-21T17:29:19.743Z,102918.72
2023-01-21T17:31:55.089Z,102923.88
2023-01-21T17:34:28.125Z,102930.44
2023-01-21T17:36:55.614Z,102916.09
2023-01-21T17:39:50.296Z,102930.78
2023-01-21T17:42:19.263Z,102927.06
2023-01-21T17:44:51.535Z,102918.75
2023-01-21T17:47:33.246Z,102919.81
2023-01-21T17:50:09.238Z,102928.59
2023-01-21T17:52:36.327Z,102925.78
2023-01-21T17:55:31.070Z,102928.78
2023-01-21T17:58:00.315Z,102937.84
2023-01-21T18:00:39.505Z,102937.28
2023-01-21T18:03:06.508Z,102940.34
2023-01-21T18:05:33.386Z,102940.41
2023-01-21T18:08:00.323Z,102931.56
2023-01-21T18:10:28.926Z,102933.66
2023-01-21T18:12:58.180Z,102942.50
2023-01-21T18:15:26.140Z,102941.25
2023-01-21T18:18:00.516Z,102929.53
2023-01-21T18:20:29.183Z,102940.16
2023-01-21T18:22:57.788Z,102940.69
2023-01-21T18:25:26.294Z,102942.88
2023-01-21T18:27:56.675Z,102944.91
2023-01-21T18:30:29.169Z,102942.22
2023-01-21T18:32:57.129Z,102939.38
2023-01-21T18:35:28.675Z,102933.91
2023-01-21T18:37:57.334Z,102945.03
2023-01-21T18:40:27.276Z,102945.47
2023-01-21T18:42:56.015Z,102936.31
2023-01-21T18:45:26.591Z,102951.09
2023-01-21T18:47:53.788Z,102949.34
2023-01-21T18:50:26.034Z,102948.47
2023-01-21T18:52:57.973Z,102958.09
2023-01-21T18:55:31.887Z,102951.44
2023-01-21T18:58:08.057Z,102953.59
2023-01-21T19:00:34.963Z,102953.91
2023-01-21T19:03:01.898Z,102956.03
2023-01-21T19:05:36.316Z,102949.88
2023-01-21T19:08:16.858Z,102960.34
2023-01-21T19:10:43.938Z,102959.56
2023-01-21T19:13:11.898Z,102965.75
2023-01-21T19:15:39.063Z,102963.69
2023-01-21T19:18:13.694Z,102963.97
2023-01-21T19:20:41.834Z,102961.56
2023-01-21T19:23:17.053Z,102960.06
2023-01-21T19:25:48.231Z,102967.34
2023-01-21T19:28:17.618Z,102972.47
2023-01-21T19:30:47.978Z,102962.53
2023-01-21T19:33:15.865Z,102968.78
2023-01-21T19:35:46.649Z,102965.94
2023-01-21T19:38:21.240Z,102968.00
2023-01-21T19:40:48.248Z,102965.66
2023-01-21T19:43:18.388Z,102973.19
2023-01-21T19:45:45.301Z,102967.00
2023-01-21T19:48:16.984Z,102960.38
2023-01-21T19:50:43.970Z,102981.00
2023-01-21T19:53:14.632Z,102984.81
2023-01-21T19:55:42.126Z,102987.44
2023-01-21T19:58:19.757Z,102994.91
2023-01-21T20:00:49.493Z,102976.97
2023-01-21T20:03:19.695Z,102992.34
2023-01-21T20:05:58.327Z,102986.53
2023-01-21T20:08:27.620Z,102981.09
2023-01-21T20:10:54.919Z,102993.66
2023-01-21T20:13:22.018Z,102998.81
2023-01-21T20:15:50.387Z,103002.50
2023-01-21T20:18:25.934Z,103005.91
2023-01-21T20:20:53.455Z,103001.88
2023-01-21T20:23:21.553Z,102989.25
2023-01-21T20:25:54.682Z,102988.44
2023-01-21T20:28:23.051Z,102994.88
2023-01-21T20:30:51.469Z,102988.53
2023-01-21T20:33:21.650Z,102995.84
2023-01-21T20:35:54.867Z,102989.06
2023-01-21T20:38:28.380Z,102983.78
2023-01-21T20:40:57.856Z,102987.75
2023-01-21T20:43:24.683Z,102990.97
2023-01-21T20:45:51.837Z,103001.97
2023-01-21T20:48:25.297Z,102981.69
2023-01-21T20:50:55.456Z,102990.13
2023-01-21T20:53:26.040Z,102988.25
2023-01-21T20:55:53.399Z,102992.22
2023-01-21T20:58:22.162Z,102990.09
2023-01-21T21:00:49.486Z,102998.28
2023-01-21T21:03:18.396Z,102987.91
2023-01-21T21:05:46.929Z,103003.81
2023-01-21T21:08:16.740Z,103010.03
2023-01-21T21:10:44.381Z,102991.72
2023-01-21T21:13:12.188Z,102986.38
2023-01-21T21:15:39.633Z,102998.25
2023-01-21T21:18:07.030Z,102993.28
2023-01-21T21:20:37.046Z,102992.66
2023-01-21T21:23:07.686Z,102989.16
2023-01-21T21:25:40.697Z,102966.78
2023-01-21T21:28:07.608Z,102982.94
2023-01-21T21:30:34.992Z,102987.81
2023-01-21T21:33:02.368Z,102982.59
2023-01-21T21:35:35.315Z,102986.19
2023-01-21T21:38:13.172Z,103001.47
2023-01-21T21:40:40.084Z,103000.31
2023-01-21T21:43:27.051Z,103003.63
2023-01-21T21:46:12.744Z,102993.63
2023-01-21T21:48:39.802Z,103002.31
2023-01-21T21:51:14.493Z,103001.63
2023-01-21T21:53:45.160Z,103001.34
2023-01-21T21:56:17.372Z,102997.53
2023-01-21T21:58:44.958Z,103000.69
2023-01-21T22:01:22.294Z,103005.91
2023-01-21T22:03:49.627Z,103003.66
2023-01-21T22:06:20.863Z,103003.06
2023-01-21T22:08:48.618Z,102992.50
2023-01-21T22:11:20.038Z,102993.25
2023-01-21T22:13:50.203Z,102991.06
2023-01-21T22:16:28.274Z,102992.47
2023-01-21T22:18:56.302Z,102985.00
2023-01-21T22:21:27.940Z,102978.50
2023-01-21T22:23:55.383Z,102980.06
2023-01-21T22:26:24.883Z,102985.00
2023-01-21T22:28:51.780Z,102984.38
2023-01-21T22:31:24.823Z,102984.16
2023-01-21T22:33:51.991Z,102973.84
2023-01-21T22:36:20.928Z,102981.38
2023-01-21T22:38:48.016Z,102975.16
2023-01-21T22:41:16.845Z,102975.31
2023-01-21T22:43:45.083Z,102975.72
2023-01-21T22:46:13.987Z,102969.22
2023-01-21T22:48:42.170Z,102969.88
2023-01-21T22:51:12.159Z,102988.13
2023-01-21T22:53:43.965Z,102992.50
2023-01-21T22:56:13.063Z,102999.16
2023-01-21T22:58:39.973Z,102983.78
2023-01-21T23:01:07.401Z,102982.50
2023-01-21T23:03:34.479Z,102983.09
2023-01-21T23:06:08.472Z,102992.72
2023-01-21T23:08:38.349Z,102984.16
2023-01-21T23:11:06.878Z,102996.22
2023-01-21T23:13:34.227Z,102990.09
2023-01-21T23:16:01.589Z,102986.47
2023-01-21T23:18:29.488Z,102981.81
2023-01-21T23:20:56.373Z,102991.66
2023-01-21T23:23:24.067Z,102977.03
2023-01-21T23:25:51.115Z,102977.75
2023-01-21T23:28:17.924Z,102976.00
2023-01-21T23:30:45.001Z,102978.59
2023-01-21T23:33:11.996Z,102978.75
2023-01-21T23:35:38.637Z,102965.50
2023-01-21T23:38:05.512Z,102971.22
2023-01-21T23:40:32.377Z,102971.75
2023-01-21T23:42:59.378Z,102968.19
2023-01-21T23:45:26.142Z,102967.72
2023-01-21T23:47:54.340Z,102961.78
2023-01-21T23:50:21.239Z,102948.66
2023-01-21T23:52:48.075Z,102953.28
2023-01-21T23:55:14.937Z,102951.59
2023-01-21T23:57:41.743Z,102950.56
